createdAt,value
2023-05-13T00:02:25.696Z,10.96
2023-05-13T00:04:52.759Z,10.96
2023-05-13T00:07:19.716Z,10.97
2023-05-13T00:09:46.842Z,10.98
2023-05-13T00:12:13.945Z,10.98
2023-05-13T00:14:41.214Z,10.99
2023-05-13T00:17:08.206Z,11.00
2023-05-13T00:19:35.140Z,10.99
2023-05-13T00:22:02.326Z,10.98
2023-05-13T00:24:29.362Z,10.96
2023-05-13T00:26:56.351Z,10.95
2023-05-13T00:29:23.368Z,10.92
2023-05-13T00:31:51.352Z,10.92
2023-05-13T00:34:19.055Z,10.89
2023-05-13T00:36:46.338Z,10.86
2023-05-13T00:39:13.558Z,10.87
2023-05-13T00:41:40.602Z,10.87
2023-05-13T00:44:07.733Z,10.86
2023-05-13T00:46:34.804Z,10.84
2023-05-13T00:49:04.467Z,10.82
2023-05-13T00:51:32.437Z,10.80
2023-05-13T00:53:59.924Z,10.79
2023-05-13T00:56:26.994Z,10.78
2023-05-13T00:58:54.033Z,10.77
2023-05-13T01:01:45.875Z,10.76
2023-05-13T01:04:34.548Z,10.74
2023-05-13T01:07:07.474Z,10.74
2023-05-13T01:10:02.092Z,10.74
2023-05-13T01:12:40.553Z,10.72
2023-05-13T01:15:15.221Z,10.69
2023-05-13T01:18:06.076Z,10.65
2023-05-13T01:20:34.320Z,10.58
2023-05-13T01:23:03.509Z,10.53
2023-05-13T01:25:30.643Z,10.47
2023-05-13T01:27:58.041Z,10.43
2023-05-13T01:30:26.445Z,10.38
2023-05-13T01:32:53.877Z,10.31
2023-05-13T01:35:23.024Z,10.22
2023-05-13T01:37:50.520Z,10.07
2023-05-13T01:40:31.603Z,9.96
2023-05-13T01:43:00.633Z,9.89
2023-05-13T01:45:32.973Z,9.80
2023-05-13T01:48:00.151Z,9.68
2023-05-13T01:50:27.299Z,9.60
2023-05-13T01:52:54.467Z,9.54
2023-05-13T01:55:21.513Z,9.51
2023-05-13T01:57:48.590Z,9.49
2023-05-13T02:00:15.881Z,9.45
2023-05-13T02:02:43.103Z,9.44
2023-05-13T02:05:10.247Z,9.40
2023-05-13T02:07:37.242Z,9.38
2023-05-13T02:10:04.592Z,9.36
2023-05-13T02:12:31.662Z,9.32
2023-05-13T02:14:58.729Z,9.33
2023-05-13T02:17:25.971Z,9.38
2023-05-13T02:19:53.129Z,9.39
2023-05-13T02:22:20.203Z,9.40
2023-05-13T02:24:47.185Z,9.42
2023-05-13T02:27:15.922Z,9.42
2023-05-13T02:29:42.978Z,9.43
2023-05-13T02:32:10.302Z,9.45
2023-05-13T02:34:37.452Z,9.48
2023-05-13T02:37:05.218Z,9.48
2023-05-13T02:39:32.141Z,9.47
2023-05-13T02:41:59.469Z,9.47
2023-05-13T02:44:26.545Z,9.48
2023-05-13T02:46:53.519Z,9.49
2023-05-13T02:49:20.664Z,9.47
2023-05-13T02:51:48.032Z,9.47
2023-05-13T02:54:15.077Z,9.48
2023-05-13T02:56:42.053Z,9.49
2023-05-13T02:59:09.038Z,9.47
2023-05-13T03:01:36.033Z,9.50
2023-05-13T03:04:03.390Z,9.55
2023-05-13T03:06:31.304Z,9.61
2023-05-13T03:08:58.196Z,9.62
2023-05-13T03:11:26.346Z,9.58
2023-05-13T03:13:53.280Z,9.59
2023-05-13T03:16:20.273Z,9.61
2023-05-13T03:18:47.447Z,9.63
2023-05-13T03:21:14.538Z,9.67
2023-05-13T03:23:41.801Z,9.69
2023-05-13T03:26:08.733Z,9.71
2023-05-13T03:28:35.774Z,9.75
2023-05-13T03:31:02.994Z,9.74
2023-05-13T03:33:29.987Z,9.75
2023-05-13T03:35:56.982Z,9.78
2023-05-13T03:38:24.026Z,9.81
2023-05-13T03:40:51.088Z,9.76
2023-05-13T03:43:18.284Z,9.73
2023-05-13T03:45:48.188Z,9.73
2023-05-13T03:48:15.460Z,9.72
2023-05-13T03:50:42.658Z,9.70
2023-05-13T03:53:12.650Z,9.69
2023-05-13T03:55:39.639Z,9.72
2023-05-13T03:58:15.516Z,9.73
2023-05-13T04:00:46.213Z,9.75
2023-05-13T04:03:13.835Z,9.82
2023-05-13T04:05:41.003Z,9.89
2023-05-13T04:08:08.079Z,9.97
2023-05-13T04:10:35.129Z,10.05
2023-05-13T04:13:02.145Z,10.10
2023-05-13T04:15:30.359Z,10.18
2023-05-13T04:17:58.083Z,10.27
2023-05-13T04:20:25.652Z,10.36
2023-05-13T04:22:52.575Z,10.43
2023-05-13T04:25:19.741Z,10.53
2023-05-13T04:27:49.830Z,10.61
2023-05-13T04:30:16.887Z,10.69
2023-05-13T04:32:44.138Z,10.75
2023-05-13T04:35:11.162Z,10.79
2023-05-13T04:37:38.166Z,10.83
2023-05-13T04:40:06.664Z,10.88
2023-05-13T04:42:34.243Z,10.93
2023-05-13T04:45:01.252Z,10.98
2023-05-13T04:47:30.368Z,11.03
2023-05-13T04:49:57.496Z,11.08
2023-05-13T04:52:25.033Z,11.09
2023-05-13T04:54:52.206Z,11.07
2023-05-13T04:57:19.165Z,11.10
2023-05-13T04:59:46.166Z,11.14
2023-05-13T05:02:13.179Z,11.16
2023-05-13T05:04:40.262Z,11.21
2023-05-13T05:07:07.195Z,11.32
2023-05-13T05:09:34.224Z,11.44
2023-05-13T05:12:01.255Z,11.57
2023-05-13T05:14:28.323Z,11.68
2023-05-13T05:16:55.417Z,11.74
2023-05-13T05:19:24.001Z,11.78
2023-05-13T05:21:52.040Z,11.79
2023-05-13T05:24:19.350Z,11.77
2023-05-13T05:26:46.332Z,11.75
2023-05-13T05:29:13.381Z,11.74
2023-05-13T05:31:40.794Z,11.74
2023-05-13T05:34:07.829Z,11.76
2023-05-13T05:36:36.678Z,11.79
2023-05-13T05:39:05.500Z,11.85
2023-05-13T05:41:33.067Z,11.92
2023-05-13T05:43:59.948Z,11.98
2023-05-13T05:46:27.373Z,12.07
2023-05-13T05:48:54.504Z,12.18
2023-05-13T05:51:21.484Z,12.31
2023-05-13T05:53:48.414Z,12.48
2023-05-13T05:56:15.645Z,12.61
2023-05-13T05:58:42.951Z,12.74
2023-05-13T06:01:10.252Z,12.86
2023-05-13T06:03:37.392Z,12.97
2023-05-13T06:06:04.687Z,13.08
2023-05-13T06:08:32.004Z,13.20
2023-05-13T06:10:59.712Z,13.31
2023-05-13T06:13:27.274Z,13.39
2023-05-13T06:15:54.851Z,13.52
2023-05-13T06:18:22.458Z,13.63
2023-05-13T06:20:49.582Z,13.73
2023-05-13T06:23:16.989Z,13.83
2023-05-13T06:25:43.940Z,13.95
2023-05-13T06:28:11.818Z,14.05
2023-05-13T06:30:39.065Z,14.14
2023-05-13T06:33:08.062Z,14.26
2023-05-13T06:35:35.223Z,14.37
2023-05-13T06:38:02.288Z,14.48
2023-05-13T06:40:29.502Z,14.62
2023-05-13T06:42:56.631Z,14.77
2023-05-13T06:45:25.513Z,14.93
2023-05-13T06:47:53.498Z,15.06
2023-05-13T06:50:20.861Z,15.20
2023-05-13T06:52:48.400Z,15.32
2023-05-13T06:55:18.219Z,15.45
2023-05-13T06:57:46.423Z,15.59
2023-05-13T07:00:15.341Z,15.73
2023-05-13T07:02:42.482Z,15.87
2023-05-13T07:05:11.700Z,15.98
2023-05-13T07:07:39.020Z,16.13
2023-05-13T07:10:06.253Z,16.28
2023-05-13T07:12:33.311Z,16.44
2023-05-13T07:15:00.367Z,16.63
2023-05-13T07:17:28.371Z,16.78
2023-05-13T07:19:56.381Z,16.90
2023-05-13T07:22:24.191Z,16.99
2023-05-13T07:24:51.133Z,17.07
2023-05-13T07:27:18.168Z,17.16
2023-05-13T07:29:45.239Z,17.29
2023-05-13T07:32:12.213Z,17.40
2023-05-13T07:34:39.467Z,17.48
2023-05-13T07:37:06.509Z,17.56
2023-05-13T07:39:33.698Z,17.70
2023-05-13T07:42:00.854Z,17.81
2023-05-13T07:44:27.916Z,17.84
2023-05-13T07:46:55.163Z,17.84
2023-05-13T07:49:22.298Z,17.90
2023-05-13T07:51:49.388Z,17.97
2023-05-13T07:54:16.380Z,18.06
2023-05-13T07:56:43.859Z,18.21
2023-05-13T07:59:10.934Z,18.35
2023-05-13T08:01:37.950Z,18.48
2023-05-13T08:04:05.229Z,18.61
2023-05-13T08:06:32.822Z,18.73
2023-05-13T08:09:00.978Z,18.87
2023-05-13T08:11:28.676Z,18.98
2023-05-13T08:13:55.739Z,19.12
2023-05-13T08:16:22.950Z,19.15
2023-05-13T08:18:50.151Z,19.22
2023-05-13T08:21:17.399Z,19.29
2023-05-13T08:23:45.779Z,19.41
2023-05-13T08:26:13.566Z,19.59
2023-05-13T08:28:40.953Z,19.68
2023-05-13T08:31:11.995Z,19.67
2023-05-13T08:33:41.370Z,19.68
2023-05-13T08:36:09.454Z,19.72
2023-05-13T08:38:36.612Z,19.85
2023-05-13T08:41:06.026Z,19.93
2023-05-13T08:43:33.969Z,20.05
2023-05-13T08:46:03.718Z,20.12
2023-05-13T08:48:32.217Z,20.09
2023-05-13T08:51:01.816Z,20.13
2023-05-13T08:53:29.319Z,20.18
2023-05-13T08:55:57.272Z,20.29
2023-05-13T08:58:25.391Z,20.41
2023-05-13T09:00:55.677Z,20.52
2023-05-13T09:03:22.753Z,20.60
2023-05-13T09:05:50.441Z,20.69
2023-05-13T09:08:17.761Z,20.76
2023-05-13T09:10:45.411Z,20.89
2023-05-13T09:13:13.897Z,21.23
2023-05-13T09:15:42.920Z,21.63
2023-05-13T09:18:10.674Z,21.96
2023-05-13T09:20:38.239Z,22.19
2023-05-13T09:23:10.785Z,22.30
2023-05-13T09:25:38.702Z,22.51
2023-05-13T09:28:07.697Z,22.76
2023-05-13T09:30:45.649Z,22.99
2023-05-13T09:33:19.384Z,23.12
2023-05-13T09:35:53.738Z,22.85
2023-05-13T09:38:25.427Z,22.69
2023-05-13T09:41:00.620Z,22.51
2023-05-13T09:43:31.937Z,22.43
2023-05-13T09:46:03.905Z,22.49
2023-05-13T09:48:34.770Z,22.62
2023-05-13T09:51:01.916Z,22.87
2023-05-13T09:53:29.118Z,22.97
2023-05-13T09:55:58.389Z,22.88
2023-05-13T09:58:30.320Z,22.89
2023-05-13T10:00:58.101Z,22.86
2023-05-13T10:03:25.453Z,22.96
2023-05-13T10:05:53.367Z,22.86
2023-05-13T10:08:22.224Z,22.57
2023-05-13T10:10:53.472Z,22.30
2023-05-13T10:13:23.693Z,22.44
2023-05-13T10:15:53.195Z,22.82
2023-05-13T10:18:23.398Z,23.19
2023-05-13T10:20:52.958Z,23.19
2023-05-13T10:23:24.760Z,22.99
2023-05-13T10:25:54.677Z,22.85
2023-05-13T10:28:22.011Z,22.79
2023-05-13T10:30:52.097Z,22.88
2023-05-13T10:33:20.210Z,22.82
2023-05-13T10:36:18.121Z,22.95
2023-05-13T10:39:16.204Z,23.29
2023-05-13T10:42:10.975Z,23.75
2023-05-13T10:44:37.994Z,24.08
2023-05-13T10:47:05.074Z,24.32
2023-05-13T10:49:34.049Z,24.42
2023-05-13T10:52:09.862Z,24.24
2023-05-13T10:54:40.217Z,23.95
2023-05-13T10:57:10.112Z,23.48
2023-05-13T10:59:38.529Z,23.33
2023-05-13T11:02:23.178Z,23.16
2023-05-13T11:05:00.770Z,22.97
2023-05-13T11:07:29.468Z,22.57
2023-05-13T11:09:56.872Z,22.15
2023-05-13T11:12:23.851Z,21.87
2023-05-13T11:14:55.638Z,21.82
2023-05-13T11:17:22.740Z,22.06
2023-05-13T11:19:50.624Z,22.48
2023-05-13T11:22:23.554Z,23.01
2023-05-13T11:25:10.602Z,23.59
2023-05-13T11:27:39.783Z,23.97
2023-05-13T11:30:08.835Z,24.43
2023-05-13T11:32:53.813Z,24.38
2023-05-13T11:35:29.166Z,23.80
2023-05-13T11:37:59.869Z,23.43
2023-05-13T11:40:33.012Z,23.18
2023-05-13T11:43:01.112Z,22.94
2023-05-13T11:45:29.679Z,22.82
2023-05-13T11:47:57.494Z,22.61
2023-05-13T11:50:30.101Z,22.48
2023-05-13T11:52:59.634Z,22.46
2023-05-13T11:55:35.799Z,22.62
2023-05-13T11:58:03.455Z,22.63
2023-05-13T12:00:34.395Z,22.38
2023-05-13T12:03:08.961Z,22.20
2023-05-13T12:05:36.717Z,22.37
2023-05-13T12:08:04.095Z,22.71
2023-05-13T12:10:31.187Z,23.08
2023-05-13T12:12:58.188Z,23.27
2023-05-13T12:15:25.810Z,23.38
2023-05-13T12:17:54.307Z,23.84
2023-05-13T12:20:24.456Z,24.31
2023-05-13T12:22:53.580Z,24.34
2023-05-13T12:25:33.093Z,24.40
2023-05-13T12:28:16.401Z,24.51
2023-05-13T12:30:50.896Z,24.87
2023-05-13T12:33:20.886Z,25.15
2023-05-13T12:35:50.455Z,25.06
2023-05-13T12:38:23.759Z,25.11
2023-05-13T12:40:52.087Z,25.58
2023-05-13T12:43:19.851Z,25.79
2023-05-13T12:45:52.396Z,25.90
2023-05-13T12:48:22.994Z,26.15
2023-05-13T12:50:53.232Z,26.42
2023-05-13T12:53:20.954Z,26.43
2023-05-13T12:55:47.968Z,26.12
2023-05-13T12:58:15.141Z,25.62
2023-05-13T13:00:42.337Z,25.52
2023-05-13T13:03:09.582Z,25.50
2023-05-13T13:05:36.820Z,25.15
2023-05-13T13:08:06.615Z,25.38
2023-05-13T13:10:33.796Z,25.76
2023-05-13T13:13:01.170Z,25.70
2023-05-13T13:15:28.268Z,25.40
2023-05-13T13:17:55.400Z,25.23
2023-05-13T13:20:22.678Z,25.36
2023-05-13T13:22:49.794Z,25.57
2023-05-13T13:25:17.179Z,25.60
2023-05-13T13:27:44.836Z,25.67
2023-05-13T13:30:12.804Z,25.71
2023-05-13T13:32:41.088Z,25.66
2023-05-13T13:35:08.824Z,25.53
2023-05-13T13:37:37.963Z,25.24
2023-05-13T13:40:05.882Z,25.14
2023-05-13T13:42:44.075Z,25.32
2023-05-13T13:45:13.382Z,25.25
2023-05-13T13:47:41.787Z,24.95
2023-05-13T13:50:09.484Z,24.75
2023-05-13T13:52:36.550Z,24.73
2023-05-13T13:55:04.020Z,24.93
2023-05-13T13:57:30.980Z,24.95
2023-05-13T13:59:58.131Z,25.02
2023-05-13T14:02:25.290Z,25.09
2023-05-13T14:04:53.543Z,25.25
2023-05-13T14:07:20.597Z,25.14
2023-05-13T14:09:49.391Z,25.07
2023-05-13T14:12:16.781Z,25.23
2023-05-13T14:14:43.775Z,25.30
2023-05-13T14:17:12.287Z,25.23
2023-05-13T14:19:40.334Z,25.36
2023-05-13T14:22:07.492Z,25.42
2023-05-13T14:24:34.589Z,25.43
2023-05-13T14:27:01.824Z,25.21
2023-05-13T14:29:28.853Z,25.03
2023-05-13T14:31:56.041Z,24.81
2023-05-13T14:34:23.332Z,24.54
2023-05-13T14:36:51.052Z,24.56
2023-05-13T14:39:18.106Z,24.49
2023-05-13T14:41:45.806Z,24.38
2023-05-13T14:44:13.696Z,24.21
2023-05-13T14:46:41.459Z,23.98
2023-05-13T14:49:08.484Z,23.93
2023-05-13T14:51:35.600Z,24.09
2023-05-13T14:54:03.167Z,24.08
2023-05-13T14:56:30.313Z,24.03
2023-05-13T14:58:57.627Z,23.84
2023-05-13T15:01:24.849Z,23.65
2023-05-13T15:03:52.177Z,23.40
2023-05-13T15:06:19.195Z,23.19
2023-05-13T15:08:46.591Z,23.05
2023-05-13T15:11:13.532Z,23.02
2023-05-13T15:13:40.508Z,23.09
2023-05-13T15:16:07.786Z,23.01
2023-05-13T15:18:34.874Z,22.87
2023-05-13T15:21:01.984Z,22.83
2023-05-13T15:23:29.053Z,22.85
2023-05-13T15:25:56.063Z,22.91
2023-05-13T15:28:23.146Z,22.95
2023-05-13T15:30:50.728Z,22.95
2023-05-13T15:33:17.739Z,22.67
2023-05-13T15:35:44.945Z,22.26
2023-05-13T15:38:12.012Z,21.79
2023-05-13T15:40:39.169Z,21.44
2023-05-13T15:43:06.148Z,21.25
2023-05-13T15:45:34.169Z,21.06
2023-05-13T15:48:01.832Z,20.83
2023-05-13T15:50:28.897Z,20.60
2023-05-13T15:52:55.921Z,20.42
2023-05-13T15:55:22.974Z,20.25
2023-05-13T15:57:50.544Z,20.13
2023-05-13T16:00:18.543Z,20.05
2023-05-13T16:02:45.755Z,19.94
2023-05-13T16:05:15.145Z,19.85
2023-05-13T16:07:42.392Z,19.81
2023-05-13T16:10:09.872Z,19.80
2023-05-13T16:12:37.242Z,19.75
2023-05-13T16:15:05.147Z,19.69
2023-05-13T16:17:32.798Z,19.65
2023-05-13T16:20:00.033Z,19.66
2023-05-13T16:22:33.107Z,19.66
2023-05-13T16:25:10.025Z,19.71
2023-05-13T16:27:38.703Z,19.75
2023-05-13T16:30:07.026Z,19.75
2023-05-13T16:32:34.581Z,19.79
2023-05-13T16:35:02.823Z,19.84
2023-05-13T16:37:34.174Z,19.91
2023-05-13T16:40:01.328Z,19.95
2023-05-13T16:42:28.456Z,20.00
2023-05-13T16:44:55.596Z,20.03
2023-05-13T16:47:22.627Z,20.01
2023-05-13T16:49:51.919Z,20.01
2023-05-13T16:52:18.863Z,20.03
2023-05-13T16:54:45.939Z,20.06
2023-05-13T16:57:15.240Z,20.05
2023-05-13T16:59:42.695Z,20.05
2023-05-13T17:02:09.662Z,20.11
2023-05-13T17:04:37.003Z,20.17
2023-05-13T17:07:04.102Z,20.22
2023-05-13T17:09:31.160Z,20.24
2023-05-13T17:11:58.073Z,20.09
2023-05-13T17:14:25.390Z,19.69
2023-05-13T17:16:53.038Z,19.12
2023-05-13T17:19:20.188Z,18.45
2023-05-13T17:21:47.610Z,17.54
2023-05-13T17:24:14.922Z,16.94
2023-05-13T17:26:41.884Z,16.34
2023-05-13T17:29:09.110Z,16.17
2023-05-13T17:31:36.094Z,16.15
2023-05-13T17:34:03.167Z,16.14
2023-05-13T17:36:32.224Z,16.20
2023-05-13T17:38:59.207Z,16.23
2023-05-13T17:41:26.229Z,16.28
2023-05-13T17:43:53.199Z,16.29
2023-05-13T17:46:20.686Z,16.29
2023-05-13T17:48:47.932Z,16.24
2023-05-13T17:51:15.109Z,16.18
2023-05-13T17:53:42.228Z,16.16
2023-05-13T17:56:10.469Z,16.15
2023-05-13T17:58:43.132Z,16.07
2023-05-13T18:01:21.191Z,16.00
2023-05-13T18:03:48.418Z,15.93
2023-05-13T18:06:15.725Z,15.85
2023-05-13T18:08:45.659Z,15.75
2023-05-13T18:11:12.889Z,15.64
2023-05-13T18:13:40.397Z,15.56
2023-05-13T18:16:08.933Z,15.50
2023-05-13T18:18:36.518Z,15.44
2023-05-13T18:21:04.124Z,15.36
2023-05-13T18:23:33.092Z,15.28
2023-05-13T18:26:00.674Z,15.21
2023-05-13T18:28:30.387Z,15.16
2023-05-13T18:30:57.499Z,15.12
2023-05-13T18:33:24.838Z,15.04
2023-05-13T18:35:52.929Z,15.01
2023-05-13T18:38:23.350Z,14.99
2023-05-13T18:40:53.596Z,14.96
2023-05-13T18:49:18.029Z,14.69
2023-05-13T18:51:47.129Z,14.51
2023-05-13T18:54:19.323Z,14.44
2023-05-13T18:56:48.831Z,14.41
2023-05-13T18:59:17.231Z,14.43
2023-05-13T19:01:46.158Z,14.44
2023-05-13T19:04:15.660Z,14.42
2023-05-13T19:06:44.329Z,14.39
2023-05-13T19:09:12.733Z,14.37
2023-05-13T19:11:41.126Z,14.35
2023-05-13T19:14:09.444Z,14.32
2023-05-13T19:16:38.130Z,14.23
2023-05-13T19:19:06.788Z,14.14
2023-05-13T19:21:35.268Z,14.08
2023-05-13T19:24:03.758Z,14.06
2023-05-13T19:26:32.171Z,14.01
2023-05-13T19:29:00.683Z,13.94
2023-05-13T19:31:29.755Z,13.88
2023-05-13T19:33:58.190Z,13.83
2023-05-13T19:36:26.758Z,13.80
2023-05-13T19:38:55.875Z,13.77
2023-05-13T19:41:24.230Z,13.75
2023-05-13T19:43:52.774Z,13.70
2023-05-13T19:46:21.414Z,13.65
2023-05-13T19:48:50.116Z,13.59
2023-05-13T19:51:18.646Z,13.54
2023-05-13T19:53:47.087Z,13.45
2023-05-13T19:56:15.567Z,13.37
2023-05-13T19:58:44.058Z,13.35
2023-05-13T20:01:15.069Z,13.38
2023-05-13T20:03:43.641Z,13.43
2023-05-13T20:06:12.300Z,13.49
2023-05-13T20:08:41.574Z,13.55
2023-05-13T20:11:10.825Z,13.60
2023-05-13T20:13:39.334Z,13.64
2023-05-13T20:16:08.105Z,13.66
2023-05-13T20:18:36.571Z,13.67
2023-05-13T20:21:05.098Z,13.69
2023-05-13T20:23:33.469Z,13.68
2023-05-13T20:26:02.445Z,13.66
2023-05-13T20:28:30.957Z,13.64
2023-05-13T20:31:02.008Z,13.64
2023-05-13T20:33:30.523Z,13.63
2023-05-13T20:35:59.028Z,13.65
2023-05-13T20:38:27.598Z,13.64
2023-05-13T20:40:56.230Z,13.62
2023-05-13T20:43:25.920Z,13.59
2023-05-13T20:45:54.332Z,13.55
2023-05-13T20:48:23.002Z,13.52
2023-05-13T20:50:59.042Z,13.49
2023-05-13T20:53:27.829Z,13.47
2023-05-13T20:55:56.293Z,13.45
2023-05-13T20:58:24.814Z,13.45
2023-05-13T21:00:53.505Z,13.42
2023-05-13T21:03:22.572Z,13.40
2023-05-13T21:05:51.177Z,13.38
2023-05-13T21:08:19.588Z,13.36
2023-05-13T21:10:47.878Z,13.33
2023-05-13T21:13:17.131Z,13.30
2023-05-13T21:15:45.671Z,13.29
2023-05-13T21:18:14.115Z,13.26
2023-05-13T21:20:42.461Z,13.20
2023-05-13T21:23:11.007Z,13.12
2023-05-13T21:25:39.630Z,13.05
2023-05-13T21:28:08.144Z,12.96
2023-05-13T21:30:36.465Z,12.89
2023-05-13T21:33:05.021Z,12.85
2023-05-13T21:35:33.376Z,12.82
2023-05-13T21:38:11.484Z,12.80
2023-05-13T21:40:40.956Z,12.75
2023-05-13T21:43:09.723Z,12.71
2023-05-13T21:45:38.190Z,12.61
2023-05-13T21:48:07.055Z,12.47
2023-05-13T21:50:35.720Z,12.36
2023-05-13T21:53:05.210Z,12.26
2023-05-13T21:55:35.216Z,12.18
2023-05-13T21:58:03.701Z,12.10
2023-05-13T22:00:32.131Z,12.01
2023-05-13T22:03:01.598Z,11.90
2023-05-13T22:05:30.100Z,11.82
2023-05-13T22:08:00.357Z,11.77
2023-05-13T22:10:28.837Z,11.75
2023-05-13T22:12:57.236Z,11.72
2023-05-13T22:15:25.534Z,11.65
2023-05-13T22:17:54.229Z,11.57
2023-05-13T22:20:23.088Z,11.50
2023-05-13T22:22:51.722Z,11.47
2023-05-13T22:25:20.138Z,11.45
2023-05-13T22:27:49.047Z,11.42
2023-05-13T22:30:17.517Z,11.39
2023-05-13T22:32:46.038Z,11.34
2023-05-13T22:35:14.675Z,11.28
2023-05-13T22:37:43.243Z,11.18
2023-05-13T22:40:12.135Z,11.11
2023-05-13T22:42:40.597Z,11.06
2023-05-13T22:45:09.626Z,11.05
2023-05-13T22:47:37.984Z,11.02
2023-05-13T22:50:24.990Z,10.99
2023-05-13T22:52:53.568Z,10.92
2023-05-13T22:55:21.948Z,10.84
2023-05-13T22:57:50.253Z,10.76
2023-05-13T23:00:18.647Z,10.72
2023-05-13T23:02:47.045Z,10.67
2023-05-13T23:05:15.782Z,10.64
2023-05-13T23:07:44.167Z,10.59
2023-05-13T23:10:12.482Z,10.53
2023-05-13T23:12:40.881Z,10.49
2023-05-13T23:15:11.847Z,10.42
2023-05-13T23:17:40.328Z,10.34
2023-05-13T23:20:09.225Z,10.27
2023-05-13T23:22:38.697Z,10.18
2023-05-13T23:25:08.104Z,10.13
2023-05-13T23:27:36.504Z,10.06
2023-05-13T23:30:05.561Z,10.02
2023-05-13T23:32:33.938Z,9.98
2023-05-13T23:35:02.607Z,9.98
2023-05-13T23:37:31.400Z,9.98
2023-05-13T23:39:59.944Z,9.94
2023-05-13T23:42:28.697Z,9.94
2023-05-13T23:44:57.333Z,9.95
2023-05-13T23:47:25.784Z,9.96
2023-05-13T23:49:54.184Z,9.95
2023-05-13T23:52:22.767Z,9.90
2023-05-13T23:54:51.202Z,9.84
2023-05-13T23:57:19.689Z,9.74
2023-05-13T23:59:49.150Z,9.71
